Time;durP1;ratioP1;P1;durP2;ratioP2;P2;SDS_P1;SDS_P2;PMS_P1;PMS_P2;Temp;Humidity;BMP_temperature;BMP_pressure;BME280_temperature;BME280_humidity;BME280_pressure;Samples;Min_cycle;Max_cycle;Signal;HPM_P1;HPM_P2
2022/09/29 00:00:35;;;;;;;0.37;0.37;;;18.70;99.90;;;18.89;50.81;99590.19;4874662;28;98850;-54
2022/09/29 00:03:01;;;;;;;0.47;0.10;;;18.70;99.90;;;18.86;50.77;99585.13;4869838;28;97352;-56
2022/09/29 00:05:27;;;;;;;0.10;0.10;;;18.60;99.90;;;18.81;50.96;99592.69;4874067;28;98586;-56
2022/09/29 00:07:53;;;;;;;0.40;0.20;;;18.50;99.90;;;18.71;51.12;99587.28;4872293;28;99856;-55
2022/09/29 00:10:19;;;;;;;0.13;0.13;;;18.40;99.90;;;18.62;51.66;99586.22;4872096;28;103303;-55
2022/09/29 00:12:44;;;;;;;0.10;0.10;;;18.10;99.90;;;18.60;51.66;99590.84;4871564;28;114410;-56
2022/09/29 00:15:10;;;;;;;0.20;0.20;;;18.10;99.90;;;18.57;51.61;99583.09;4871038;28;97910;-56
2022/09/29 00:17:36;;;;;;;0.10;0.10;;;18.10;99.90;;;18.54;51.93;99582.53;4876537;28;97575;-53
2022/09/29 00:20:03;;;;;;;0.20;0.20;;;18.00;99.90;;;18.53;51.85;99583.50;4870399;28;98678;-56
2022/09/29 00:22:29;;;;;;;0.43;0.23;;;18.00;99.90;;;18.53;52.15;99584.34;4870847;28;97481;-56
2022/09/29 00:24:55;;;;;;;0.20;0.20;;;18.10;99.90;;;18.56;51.83;99583.25;4872222;28;114534;-53
2022/09/29 00:27:20;;;;;;;1.67;0.40;;;18.20;99.90;;;18.61;51.69;99581.00;4869362;28;103996;-52
2022/09/29 00:29:46;;;;;;;0.30;0.20;;;18.30;99.90;;;18.63;51.60;99579.06;4874341;28;97642;-56
2022/09/29 00:32:12;;;;;;;0.57;0.47;;;18.30;99.90;;;18.58;51.73;99576.78;4869923;28;98187;-53
2022/09/29 00:34:38;;;;;;;0.20;0.20;;;18.20;99.90;;;18.55;51.91;99577.06;4875552;28;98502;-54
2022/09/29 00:37:04;;;;;;;0.10;0.10;;;18.10;99.90;;;18.56;51.71;99578.75;4868095;28;109245;-55
2022/09/29 00:39:30;;;;;;;1.17;0.27;;;18.20;99.90;;;18.57;51.77;99579.59;4874582;28;96855;-54
2022/09/29 00:41:56;;;;;;;0.30;0.23;;;18.20;99.90;;;18.56;51.86;99578.75;4873781;28;97393;-56
2022/09/29 00:44:22;;;;;;;0.10;0.10;;;18.20;99.90;;;18.52;51.94;99573.81;4866762;28;98637;-56
2022/09/29 00:46:57;;;;;;;1.20;0.33;;;18.10;99.90;;;18.49;51.88;99579.38;4867528;28;97400;-54
2022/09/29 00:49:36;;;;;;;0.30;0.10;;;18.10;99.90;;;18.42;52.08;99581.75;4868673;28;98496;-55
2022/09/29 00:52:20;;;;;;;0.10;0.10;;;17.90;99.90;;;18.38;52.44;99575.84;4886286;28;97229;-51
2022/09/29 00:54:59;;;;;;;0.17;0.17;;;17.90;99.90;;;18.34;52.42;99581.53;4904467;28;98219;-53
2022/09/29 00:57:33;;;;;;;0.10;0.10;;;17.80;99.90;;;18.23;52.44;99586.97;4898247;28;97133;-52
2022/09/29 01:00:10;;;;;;;0.20;0.17;;;17.60;99.90;;;18.15;52.74;99584.91;4887891;28;98247;-60
2022/09/29 01:02:46;;;;;;;0.10;0.10;;;17.50;99.90;;;18.12;52.92;99583.38;4885293;28;97178;-54
2022/09/29 01:05:41;;;;;;;0.40;0.20;;;17.50;99.90;;;18.15;53.18;99584.91;4886882;28;97270;-55
2022/09/29 01:08:15;;;;;;;0.10;0.10;;;17.60;99.90;;;18.16;52.70;99585.75;4900296;28;97237;-54
2022/09/29 01:10:43;;;;;;;0.20;0.20;;;17.60;99.90;;;18.08;53.11;99584.59;4898509;28;97026;-56
2022/09/29 01:13:09;;;;;;;0.53;0.10;;;17.50;99.90;;;18.08;53.32;99584.59;4892904;28;97614;-49
2022/09/29 01:15:35;;;;;;;0.40;0.20;;;17.50;99.90;;;18.16;53.16;99583.09;4897293;28;97257;-53
2022/09/29 01:18:01;;;;;;;0.23;0.13;;;17.70;99.90;;;18.20;53.06;99581.84;4893862;28;97255;-54
2022/09/29 01:20:35;;;;;;;0.13;0.13;;;17.70;99.90;;;18.22;53.08;99582.56;4899200;28;97123;-53
2022/09/29 01:23:31;;;;;;;0.50;0.30;;;17.80;99.90;;;18.24;53.01;99588.66;4898135;28;96678;-52
2022/09/29 01:26:17;;;;;;;0.20;0.10;;;17.80;99.90;;;18.22;52.85;99590.56;4899653;28;97325;-52
2022/09/29 01:28:57;;;;;;;0.00;0.00;;;17.70;99.90;;;18.20;52.81;99592.53;4865969;28;97203;-54
2022/09/29 01:31:42;;;;;;;0.30;0.00;;;17.70;99.90;;;18.19;52.84;99598.84;4897595;28;97042;-55
2022/09/29 01:34:17;;;;;;;0.07;0.07;;;17.60;99.90;;;18.19;52.69;99590.84;4890767;28;98253;-54
2022/09/29 01:37:23;;;;;;;0.10;0.10;;;17.70;99.90;;;18.22;52.77;99601.25;4891057;28;97588;-54
2022/09/29 01:40:16;;;;;;;0.43;0.13;;;17.70;99.90;;;18.21;52.59;99604.91;4884781;28;97449;-53
2022/09/29 01:43:03;;;;;;;0.20;0.20;;;17.70;99.90;;;18.18;52.77;99594.47;4900124;28;97350;-56
2022/09/29 01:45:33;;;;;;;0.30;0.10;;;17.70;99.90;;;18.11;52.93;99595.00;4890572;28;103622;-54
2022/09/29 01:48:22;;;;;;;0.00;0.00;;;17.60;99.90;;;18.11;52.92;99600.34;4895867;28;97373;-59
2022/09/29 01:50:53;;;;;;;0.30;0.27;;;17.60;99.90;;;18.09;52.99;99596.97;4909254;28;96959;-55
2022/09/29 01:53:28;;;;;;;0.00;0.00;;;17.60;99.90;;;18.06;52.97;99601.69;4894267;28;98459;-56
2022/09/29 01:56:01;;;;;;;0.07;0.07;;;17.50;99.90;;;18.04;53.03;99603.63;4893556;28;97562;-56
2022/09/29 01:58:36;;;;;;;0.50;0.50;;;17.50;99.90;;;18.05;53.32;99600.00;4893997;28;100768;-53
2022/09/29 02:01:10;;;;;;;0.30;0.13;;;17.50;99.90;;;18.06;53.21;99602.53;4891729;28;96802;-53
2022/09/29 02:04:03;;;;;;;0.10;0.10;;;17.60;99.90;;;18.07;53.01;99598.88;4894983;28;96717;-55
2022/09/29 02:06:35;;;;;;;0.30;0.30;;;17.60;99.90;;;18.07;52.72;99604.22;4895506;28;101949;-51
2022/09/29 02:09:08;;;;;;;0.20;0.20;;;17.60;99.90;;;18.01;52.85;99598.56;4899381;28;97750;-55
2022/09/29 02:11:37;;;;;;;0.10;0.10;;;17.40;99.90;;;17.97;53.38;99608.66;4900039;28;99332;-54
2022/09/29 02:14:21;;;;;;;0.10;0.10;;;17.30;99.90;;;17.98;53.25;99597.00;4898348;28;97416;-56
2022/09/29 02:16:55;;;;;;;0.30;0.27;;;17.40;99.90;;;17.98;53.32;99597.00;4896949;28;97004;-55
2022/09/29 02:19:26;;;;;;;0.20;0.10;;;17.40;99.90;;;18.04;53.32;99599.16;4898150;28;98477;-51
2022/09/29 02:21:53;;;;;;;0.00;0.00;;;17.50;99.90;;;18.10;52.91;99601.31;4896810;28;97001;-56
2022/09/29 02:24:22;;;;;;;0.30;0.20;;;17.70;99.90;;;18.16;52.79;99607.13;4897219;28;97140;-56
2022/09/29 02:26:49;;;;;;;0.43;0.13;;;17.70;99.90;;;18.16;52.77;99607.13;4891625;28;98189;-57
2022/09/29 02:29:16;;;;;;;0.10;0.10;;;17.70;99.90;;;18.18;52.89;99607.81;4892542;28;97397;-57
2022/09/29 02:31:43;;;;;;;0.10;0.10;;;17.70;99.90;;;18.18;52.50;99599.81;4895371;28;96449;-56
2022/09/29 02:34:16;;;;;;;0.23;0.20;;;17.70;99.90;;;18.13;52.61;99603.72;4892624;28;97278;-54
2022/09/29 02:37:01;;;;;;;0.30;0.30;;;17.60;99.90;;;17.94;52.69;99606.25;4895754;28;97762;-55
2022/09/29 02:40:08;;;;;;;0.00;0.00;;;17.20;99.90;;;17.74;53.60;99597.19;4893659;28;101804;-56
2022/09/29 02:42:43;;;;;;;0.10;0.07;;;16.90;99.90;;;17.68;54.22;99599.50;4885745;28;100484;-55
2022/09/29 02:45:40;;;;;;;0.63;0.40;;;16.80;99.90;;;17.66;54.24;99601.44;4895787;28;99311;-56
2022/09/29 02:48:18;;;;;;;0.10;0.10;;;16.80;99.90;;;17.64;54.37;99606.03;4890123;28;97084;-54
2022/09/29 02:51:05;;;;;;;0.23;0.20;;;16.80;99.90;;;17.64;54.14;99604.22;4896446;28;97204;-54
2022/09/29 02:54:17;;;;;;;0.10;0.03;;;16.90;99.90;;;17.69;54.03;99611.88;4887869;28;97026;-54
2022/09/29 02:57:13;;;;;;;0.30;0.10;;;17.00;99.90;;;17.80;53.97;99602.03;4889910;28;97736;-54
2022/09/29 03:00:05;;;;;;;0.00;0.00;;;17.20;99.90;;;17.89;53.47;99605.75;4893962;28;102302;-54
2022/09/29 03:02:31;;;;;;;0.20;0.10;;;17.40;99.90;;;17.93;53.32;99604.53;4902280;28;101717;-55
2022/09/29 03:04:57;;;;;;;0.13;0.10;;;17.50;99.90;;;17.97;53.33;99611.31;4898255;28;97401;-53
2022/09/29 03:07:23;;;;;;;0.30;0.20;;;17.50;99.90;;;17.98;53.30;99610.34;4894302;28;97285;-52
2022/09/29 03:09:49;;;;;;;0.10;0.10;;;17.50;99.90;;;17.95;53.44;99605.28;4895703;28;97595;-55
2022/09/29 03:12:16;;;;;;;0.00;0.00;;;17.40;99.90;;;17.96;53.32;99606.97;4890713;28;97488;-54
2022/09/29 03:14:42;;;;;;;0.10;0.10;;;17.30;99.90;;;17.92;53.13;99604.66;4894423;28;97073;-55
2022/09/29 03:17:08;;;;;;;0.10;0.03;;;17.30;99.90;;;17.86;53.74;99603.34;4890954;28;97045;-53
2022/09/29 03:19:33;;;;;;;0.10;0.10;;;17.10;99.90;;;17.87;53.44;99602.38;4896546;28;97145;-53
2022/09/29 03:21:59;;;;;;;0.00;0.00;;;17.20;99.90;;;17.90;53.37;99602.13;4894425;28;98160;-52
2022/09/29 03:24:25;;;;;;;0.37;0.13;;;17.30;99.90;;;17.89;53.19;99600.41;4893758;28;97244;-55
2022/09/29 03:26:51;;;;;;;0.40;0.10;;;17.30;99.90;;;17.88;53.36;99598.72;4895751;28;96570;-54
2022/09/29 03:29:17;;;;;;;0.43;0.40;;;17.20;99.90;;;17.80;53.03;99598.53;4885622;28;99388;-55
2022/09/29 03:31:43;;;;;;;0.30;0.20;;;17.10;99.90;;;17.68;53.46;99605.72;4898581;28;109839;-54
2022/09/29 03:34:09;;;;;;;0.30;0.30;;;16.80;99.90;;;17.59;53.97;99602.91;4890516;28;104662;-54
2022/09/29 03:36:34;;;;;;;0.20;0.17;;;16.60;99.90;;;17.47;54.07;99608.25;4891061;28;99215;-56
2022/09/29 03:39:00;;;;;;;0.37;0.20;;;16.40;99.90;;;17.36;53.55;99618.06;4891204;28;96614;-54
2022/09/29 03:41:26;;;;;;;0.73;0.10;;;16.20;99.90;;;17.30;54.77;99616.75;4894779;28;97444;-55
2022/09/29 03:43:51;;;;;;;0.50;0.17;;;16.10;99.90;;;17.31;55.26;99610.44;4894513;28;104600;-53
2022/09/29 03:46:17;;;;;;;0.00;0.00;;;16.30;99.90;;;17.38;54.96;99608.16;4892335;28;97377;-54
2022/09/29 03:48:43;;;;;;;0.00;0.00;;;16.60;99.90;;;17.42;54.73;99609.59;4887056;28;97164;-54
2022/09/29 03:51:09;;;;;;;0.13;0.13;;;16.70;99.90;;;17.49;54.38;99603.63;4890833;28;97073;-55
2022/09/29 03:53:36;;;;;;;0.17;0.17;;;16.80;99.90;;;17.54;54.11;99606.78;4899867;28;99309;-53
2022/09/29 03:56:02;;;;;;;0.37;0.20;;;16.90;99.90;;;17.56;54.32;99609.34;4897031;28;97452;-52
2022/09/29 03:58:28;;;;;;;0.00;0.00;;;16.90;99.90;;;17.55;54.03;99613.81;4894733;28;97646;-53
2022/09/29 04:00:54;;;;;;;0.10;0.10;;;16.80;99.90;;;17.52;54.34;99613.22;4895406;28;98420;-53
2022/09/29 04:03:20;;;;;;;0.03;0.03;;;16.80;99.90;;;17.51;54.41;99615.06;4892948;28;97428;-53
2022/09/29 04:05:48;;;;;;;0.67;0.60;;;16.70;99.90;;;17.56;54.18;99614.66;4900023;28;97978;-53
2022/09/29 04:08:15;;;;;;;1.10;0.30;;;16.90;99.90;;;17.61;53.87;99623.13;4891922;28;97837;-55
2022/09/29 04:10:41;;;;;;;0.10;0.10;;;17.00;99.90;;;17.59;53.62;99624.22;4899451;28;97243;-55
2022/09/29 04:13:08;;;;;;;0.07;0.07;;;16.90;99.90;;;17.59;53.94;99625.06;4889598;28;96835;-55
2022/09/29 04:15:34;;;;;;;0.47;0.30;;;16.90;99.90;;;17.57;54.33;99628.84;4895195;28;97466;-55
2022/09/29 04:18:01;;;;;;;0.50;0.20;;;16.80;99.90;;;17.51;53.74;99628.38;4888742;28;97789;-55
2022/09/29 04:20:27;;;;;;;0.20;0.10;;;16.70;99.90;;;17.37;54.01;99631.31;4893791;28;97479;-54
2022/09/29 04:22:53;;;;;;;0.00;0.00;;;16.40;99.90;;;17.35;54.80;99630.56;4892710;28;97381;-54
2022/09/29 04:25:19;;;;;;;0.47;0.30;;;16.40;99.90;;;17.38;54.61;99633.00;4899974;28;97462;-55
2022/09/29 04:27:45;;;;;;;0.17;0.17;;;16.50;99.90;;;17.39;54.58;99634.69;4892868;28;98767;-56
2022/09/29 04:30:11;;;;;;;0.00;0.00;;;16.60;99.90;;;17.30;54.63;99635.41;4892672;28;110001;-54
2022/09/29 04:32:37;;;;;;;0.00;0.00;;;16.40;99.90;;;17.17;54.67;99645.34;4895319;28;96949;-55
2022/09/29 04:35:03;;;;;;;0.00;0.00;;;16.00;99.90;;;17.09;55.22;99637.97;4899174;28;97248;-57
2022/09/29 04:37:30;;;;;;;0.20;0.17;;;16.00;99.90;;;17.07;55.45;99649.69;4895516;28;96944;-56
2022/09/29 04:39:56;;;;;;;0.40;0.10;;;16.00;99.90;;;17.08;55.54;99651.41;4894463;28;98356;-55
2022/09/29 04:42:22;;;;;;;0.13;0.10;;;16.10;99.90;;;17.07;55.05;99644.34;4885504;28;97263;-56
2022/09/29 04:44:48;;;;;;;0.10;0.10;;;16.00;99.90;;;16.99;55.75;99646.78;4897085;28;97113;-54
2022/09/29 04:47:14;;;;;;;0.30;0.30;;;15.90;99.90;;;16.95;55.75;99649.69;4888886;28;105473;-56
2022/09/29 04:49:40;;;;;;;0.20;0.20;;;15.90;99.90;;;16.93;55.84;99654.31;4892765;28;97003;-54
2022/09/29 04:52:06;;;;;;;0.00;0.00;;;15.80;99.90;;;16.95;55.83;99641.72;4895618;28;96980;-55
2022/09/29 04:54:33;;;;;;;0.00;0.00;;;15.90;99.90;;;17.07;55.44;99644.34;4902222;28;96784;-54
2022/09/29 04:57:00;;;;;;;0.17;0.10;;;16.20;99.90;;;17.14;55.09;99651.75;4894459;28;97554;-57
2022/09/29 04:59:27;;;;;;;0.00;0.00;;;16.40;99.90;;;17.19;55.08;99648.72;4900513;28;101903;-54
2022/09/29 05:01:53;;;;;;;1.20;0.30;;;16.40;99.90;;;17.25;54.92;99650.94;4897267;28;96903;-56
2022/09/29 05:04:19;;;;;;;0.10;0.00;;;16.50;99.90;;;17.29;54.90;99649.72;4882680;28;97301;-55
2022/09/29 05:06:45;;;;;;;0.20;0.20;;;16.70;99.90;;;17.32;54.39;99653.94;4894143;28;97280;-54
2022/09/29 05:09:13;;;;;;;0.27;0.27;;;16.60;99.90;;;17.26;54.50;99665.94;4889795;28;115686;-52
2022/09/29 05:11:38;;;;;;;0.00;0.00;;;16.40;99.90;;;17.17;54.49;99661.31;4893492;28;97567;-54
2022/09/29 05:14:04;;;;;;;0.20;0.17;;;16.20;99.90;;;17.03;55.18;99665.06;4890002;28;97289;-50
2022/09/29 05:16:31;;;;;;;0.20;0.20;;;15.90;99.90;;;16.99;55.42;99668.94;4895205;28;96837;-51
2022/09/29 05:18:57;;;;;;;0.00;0.00;;;15.90;99.90;;;16.95;55.27;99668.34;4893937;28;100756;-53
2022/09/29 05:21:23;;;;;;;0.77;0.40;;;15.90;99.90;;;16.85;55.62;99678.00;4890416;28;97168;-55
2022/09/29 05:23:48;;;;;;;0.00;0.00;;;15.80;99.90;;;16.79;55.65;99673.16;4890793;28;104186;-55
2022/09/29 05:26:14;;;;;;;1.73;0.13;;;15.70;99.90;;;16.78;56.13;99676.78;4886480;28;110164;-53
2022/09/29 05:28:45;;;;;;;0.10;0.10;;;15.70;99.90;;;16.80;55.53;99674.00;4892609;28;104320;-52
2022/09/29 05:31:13;;;;;;;0.40;0.10;;;15.70;99.90;;;16.77;55.69;99682.22;4890166;28;97203;-55
2022/09/29 05:33:40;;;;;;;0.10;0.10;;;15.70;99.90;;;16.76;55.74;99684.03;4893781;28;97200;-56
2022/09/29 05:36:09;;;;;;;0.07;0.00;;;15.70;99.90;;;16.77;55.86;99685.72;4887068;28;97506;-53
2022/09/29 05:38:35;;;;;;;0.20;0.20;;;15.70;99.90;;;16.76;55.87;99686.69;4892654;28;97335;-54
2022/09/29 05:41:22;;;;;;;0.10;0.10;;;15.70;99.90;;;16.75;55.41;99692.13;4884321;28;96817;-55
2022/09/29 05:43:49;;;;;;;0.00;0.00;;;15.70;99.90;;;16.71;55.86;99691.53;4893198;28;97219;-56
2022/09/29 05:46:16;;;;;;;0.00;0.00;;;15.60;99.90;;;16.69;56.19;99690.81;4881484;28;99726;-51
2022/09/29 05:48:42;;;;;;;0.07;0.07;;;15.60;99.90;;;16.70;55.96;99684.50;4891309;28;97187;-54
2022/09/29 05:51:14;;;;;;;0.10;0.10;;;15.60;99.90;;;16.68;56.00;99697.09;4888253;28;97177;-53
2022/09/29 05:53:40;;;;;;;0.03;0.00;;;15.60;99.90;;;16.70;56.27;99700.47;4897541;28;99394;-53
2022/09/29 05:56:07;;;;;;;0.10;0.10;;;15.70;99.90;;;16.72;55.85;99697.69;4892212;28;98623;-55
2022/09/29 05:58:33;;;;;;;1.90;0.23;;;15.70;99.90;;;16.73;55.94;99705.56;4888410;28;97863;-55
2022/09/29 06:00:59;;;;;;;0.00;0.00;;;15.70;99.90;;;16.71;56.10;99710.16;4886620;28;97401;-54
2022/09/29 06:03:24;;;;;;;0.20;0.20;;;15.70;99.90;;;16.76;55.80;99699.16;4900355;28;119034;-55
2022/09/29 06:05:50;;;;;;;0.13;0.00;;;15.80;99.90;;;16.81;55.99;99702.34;4890358;28;97397;-56
2022/09/29 06:08:16;;;;;;;0.30;0.30;;;15.80;99.90;;;16.85;56.04;99701.97;4869600;28;102302;-54
2022/09/29 06:10:42;;;;;;;0.20;0.10;;;15.90;99.90;;;16.89;55.56;99707.91;4873471;28;98536;-56
2022/09/29 06:13:08;;;;;;;0.10;0.10;;;16.00;99.90;;;16.97;55.38;99710.00;4869391;28;97072;-53
2022/09/29 06:15:33;;;;;;;0.20;0.00;;;16.10;99.90;;;16.99;55.32;99705.41;4872395;28;97224;-53
2022/09/29 06:18:02;;;;;;;0.17;0.17;;;16.10;99.90;;;17.06;54.96;99707.44;4874279;28;98291;-53
2022/09/29 06:20:29;;;;;;;0.00;0.00;;;16.20;99.90;;;17.13;54.81;99710.50;4873110;28;97243;-51
2022/09/29 06:22:55;;;;;;;0.00;0.00;;;16.30;99.90;;;17.18;54.26;99711.00;4873233;28;97457;-56
2022/09/29 06:25:22;;;;;;;2.40;0.30;;;16.40;99.90;;;17.14;54.67;99706.88;4870540;28;98154;-55
2022/09/29 06:27:48;;;;;;;0.10;0.00;;;16.30;99.90;;;17.13;54.86;99718.50;4872137;28;97556;-56
2022/09/29 06:30:14;;;;;;;1.73;0.10;;;16.20;99.90;;;17.14;54.57;99717.53;4873023;28;99501;-54
2022/09/29 06:32:40;;;;;;;0.10;0.10;;;16.30;99.90;;;17.22;54.76;99723.13;4874827;28;99718;-56
2022/09/29 06:37:55;;;;;;;0.00;0.00;;;16.50;99.90;;;17.30;53.86;99715.34;4873976;28;96734;-55
2022/09/29 06:40:22;;;;;;;0.20;0.20;;;16.60;99.90;;;17.34;54.51;99727.47;4867716;28;98472;-55
2022/09/29 06:42:48;;;;;;;0.07;0.07;;;16.60;99.90;;;17.34;54.39;99727.47;4874606;28;97410;-54
2022/09/29 06:45:15;;;;;;;0.10;0.10;;;16.60;99.90;;;17.43;53.91;99726.75;4869472;28;97344;-55
2022/09/29 06:47:40;;;;;;;0.10;0.10;;;16.80;99.90;;;17.54;53.74;99728.59;4872880;28;98315;-54
2022/09/29 06:50:08;;;;;;;0.03;0.00;;;16.90;99.90;;;17.64;53.42;99737.53;4874608;28;98403;-54
2022/09/29 06:52:34;;;;;;;0.00;0.00;;;17.10;99.90;;;17.76;53.12;99727.75;4880101;28;97442;-54
2022/09/29 06:55:00;;;;;;;0.10;0.10;;;17.30;99.90;;;17.85;52.96;99732.34;4885232;28;113568;-60
2022/09/29 06:57:26;;;;;;;0.30;0.20;;;17.50;99.90;;;17.63;45.13;99732.31;4894686;28;127142;-52
2022/09/29 06:59:52;;;;;;;0.67;0.40;;;17.30;99.20;;;16.89;46.27;99732.72;4899576;28;97242;-55
2022/09/29 07:02:18;;;;;;;0.00;0.00;;;16.30;99.90;;;16.91;55.11;99730.78;4889283;28;97006;-57
2022/09/29 07:04:43;;;;;;;0.30;0.10;;;16.00;99.90;;;17.08;54.98;99726.00;4894816;28;96960;-54
2022/09/29 07:07:09;;;;;;;0.00;0.00;;;16.40;99.90;;;17.10;54.66;99740.06;4890474;28;97399;-54
2022/09/29 07:09:35;;;;;;;0.00;0.00;;;16.40;99.90;;;17.05;54.76;99736.88;4892786;28;102931;-55
2022/09/29 07:12:01;;;;;;;0.50;0.10;;;16.30;99.90;;;17.02;54.51;99737.13;4890323;28;99616;-57
2022/09/29 07:14:26;;;;;;;0.00;0.00;;;16.20;99.90;;;17.01;55.06;99733.59;4891942;28;109625;-55
2022/09/29 07:16:53;;;;;;;0.40;0.20;;;16.10;99.90;;;16.90;54.50;99739.75;4895561;28;98813;-54
2022/09/29 07:19:19;;;;;;;0.30;0.20;;;16.00;99.90;;;17.02;55.04;99742.44;4890105;28;97548;-56
2022/09/29 07:21:48;;;;;;;0.30;0.20;;;16.10;99.90;;;16.90;54.35;99734.41;4891911;28;97476;-55
2022/09/29 07:24:14;;;;;;;0.00;0.00;;;16.00;99.90;;;17.08;54.88;99739.34;4888363;28;116914;-56
2022/09/29 07:26:40;;;;;;;1.13;0.20;;;16.40;99.90;;;17.10;54.47;99742.72;4893579;28;97322;-55
2022/09/29 07:29:06;;;;;;;0.30;0.30;;;16.40;99.90;;;17.07;50.43;99745.59;4889579;28;97200;-56
2022/09/29 07:31:32;;;;;;;0.03;0.03;;;16.40;99.90;;;16.88;51.87;99749.66;4899915;28;98006;-54
2022/09/29 07:33:57;;;;;;;0.00;0.00;;;16.10;99.90;;;17.29;54.40;99744.81;4893303;28;98084;-53
2022/09/29 07:36:24;;;;;;;0.00;0.00;;;16.60;99.90;;;17.59;53.53;99752.22;4889160;28;97055;-54
2022/09/29 07:38:51;;;;;;;0.40;0.20;;;17.20;99.90;;;17.70;53.19;99754.91;4891833;28;96771;-52
2022/09/29 07:41:20;;;;;;;0.10;0.03;;;17.50;99.90;;;17.86;52.86;99752.72;4889599;28;97531;-54
2022/09/29 07:43:46;;;;;;;0.30;0.23;;;17.60;99.90;;;17.73;52.37;99750.19;4884246;28;98026;-55
2022/09/29 07:46:12;;;;;;;0.00;0.00;;;17.40;99.90;;;17.62;49.22;99749.28;4890041;28;98340;-54
2022/09/29 07:48:38;;;;;;;0.27;0.23;;;17.10;99.90;;;17.59;53.16;99760.22;4889863;28;97579;-55
2022/09/29 07:51:13;;;;;;;0.40;0.20;;;17.00;99.90;;;17.70;53.14;99754.91;4891424;28;97554;-55
2022/09/29 07:53:40;;;;;;;0.10;0.10;;;17.10;99.90;;;17.92;52.01;99760.22;4885227;28;99920;-56
2022/09/29 07:56:18;;;;;;;0.07;0.00;;;17.60;99.90;;;17.99;52.53;99753.44;4891189;28;98844;-56
2022/09/29 07:58:46;;;;;;;0.10;0.10;;;17.70;99.90;;;18.22;51.92;99756.03;4887911;28;96997;-56
2022/09/29 08:01:14;;;;;;;0.20;0.20;;;18.00;99.90;;;18.40;51.60;99759.91;4892970;28;97172;-55
2022/09/29 08:03:49;;;;;;;0.20;0.20;;;18.30;99.90;;;18.57;51.10;99761.19;4893040;28;97322;-54
2022/09/29 08:06:15;;;;;;;0.20;0.00;;;18.50;99.90;;;18.71;50.64;99764.44;4884893;28;97635;-56
2022/09/29 08:08:41;;;;;;;0.10;0.10;;;18.70;99.90;;;18.78;50.41;99769.25;4891244;28;97152;-55
2022/09/29 08:11:11;;;;;;;0.20;0.10;;;18.80;99.90;;;18.84;50.20;99774.09;4890916;28;96956;-55
2022/09/29 08:13:37;;;;;;;0.00;0.00;;;18.80;99.90;;;18.86;49.83;99769.47;4891837;28;97631;-54
2022/09/29 08:16:07;;;;;;;0.10;0.10;;;18.80;99.90;;;18.85;49.86;99776.63;4886732;28;98193;-55
2022/09/29 08:18:34;;;;;;;0.53;0.23;;;18.80;99.90;;;18.88;46.62;99783.53;4887652;28;97108;-54
2022/09/29 08:21:01;;;;;;;0.30;0.13;;;18.80;99.70;;;18.73;49.75;99767.81;4893462;28;98003;-61
2022/09/29 08:23:28;;;;;;;0.03;0.00;;;18.60;99.90;;;18.71;50.09;99779.59;4889277;28;100269;-53
2022/09/29 08:26:02;;;;;;;0.10;0.10;;;18.40;99.90;;;18.82;50.07;99776.06;4890056;28;97298;-56
2022/09/29 08:28:29;;;;;;;0.13;0.13;;;18.60;99.90;;;18.59;50.29;99786.78;4883248;28;100218;-55
2022/09/29 08:30:55;;;;;;;0.10;0.10;;;18.30;99.90;;;18.75;50.16;99785.53;4888716;28;99497;-56
2022/09/29 08:33:22;;;;;;;0.27;0.10;;;18.60;99.90;;;18.86;50.04;99788.16;4887608;28;98153;-54
2022/09/29 08:35:56;;;;;;;0.10;0.10;;;18.80;99.90;;;18.93;49.33;99789.34;4895696;28;98065;-56
2022/09/29 08:38:22;;;;;;;0.10;0.00;;;18.90;99.90;;;18.92;49.63;99790.31;4885391;28;97278;-56
2022/09/29 08:40:48;;;;;;;0.17;0.10;;;18.80;99.90;;;19.00;49.55;99795.88;4887838;28;97251;-56
2022/09/29 08:43:29;;;;;;;0.10;0.10;;;18.90;99.90;;;19.07;49.47;99802.38;4887154;28;97172;-51
2022/09/29 08:46:06;;;;;;;0.40;0.13;;;19.10;99.90;;;19.11;49.28;99798.50;4890879;28;98531;-53
2022/09/29 08:48:38;;;;;;;0.20;0.20;;;19.10;99.90;;;19.15;49.01;99799.94;4888845;28;97432;-55
2022/09/29 08:51:16;;;;;;;0.03;0.03;;;19.20;99.90;;;19.22;48.79;99802.91;4887749;28;97252;-55
2022/09/29 08:53:46;;;;;;;0.10;0.07;;;19.30;99.90;;;19.21;48.94;99804.75;4883558;28;97359;-55
2022/09/29 08:56:17;;;;;;;0.33;0.27;;;19.20;99.90;;;19.23;49.00;99802.78;4882689;28;98324;-55
2022/09/29 08:58:43;;;;;;;0.20;0.10;;;19.30;99.90;;;19.23;48.03;99813.47;4888562;28;97323;-55
2022/09/29 09:01:22;;;;;;;0.43;0.20;;;19.20;98.80;;;19.23;48.87;99808.13;4889804;28;97324;-55
2022/09/29 09:04:15;;;;;;;0.10;0.10;;;19.30;99.90;;;19.29;48.55;99802.28;4893895;28;97272;-53
2022/09/29 09:06:41;;;;;;;0.00;0.00;;;19.40;99.90;;;19.32;48.69;99812.69;4887720;28;102604;-55
2022/09/29 09:09:37;;;;;;;0.17;0.17;;;19.40;99.90;;;19.37;48.36;99814.13;4889199;28;97042;-54
2022/09/29 09:12:53;;;;;;;0.30;0.20;;;19.40;99.90;;;19.40;48.21;99811.22;4888916;28;97506;-56
2022/09/29 09:15:24;;;;;;;0.37;0.30;;;19.50;99.70;;;19.03;44.49;99811.66;4885853;28;97688;-55
2022/09/29 09:18:10;;;;;;;1.90;0.67;;;19.00;97.60;;;18.55;45.54;99814.72;4891104;28;97183;-56
2022/09/29 09:21:03;;;;;;;0.10;0.10;;;18.30;98.70;;;18.65;50.03;99815.66;4881471;28;97500;-56
2022/09/29 09:24:03;;;;;;;0.10;0.10;;;18.30;99.90;;;18.79;49.92;99819.03;4886379;28;97500;-56
2022/09/29 09:26:43;;;;;;;0.27;0.07;;;18.70;99.90;;;18.92;49.55;99812.53;4888028;28;102043;-53
2022/09/29 09:29:34;;;;;;;0.97;0.27;;;18.90;99.90;;;19.02;49.53;99809.94;4893461;28;97328;-55
2022/09/29 09:32:16;;;;;;;0.20;0.07;;;19.10;99.90;;;19.05;49.40;99809.69;4891368;28;97232;-55
2022/09/29 09:34:59;;;;;;;0.20;0.10;;;19.10;99.90;;;19.15;48.93;99815.13;4894178;28;97600;-55
2022/09/29 09:37:33;;;;;;;0.20;0.10;;;19.20;99.90;;;19.15;49.01;99818.63;4888312;28;97190;-56
2022/09/29 09:40:15;;;;;;;2.03;0.70;;;19.10;99.90;;;18.85;46.03;99813.19;4891420;28;97007;-55
2022/09/29 09:42:51;;;;;;;0.50;0.40;;;18.70;98.40;;;18.77;49.65;99826.31;4889034;28;97408;-55
2022/09/29 09:45:43;;;;;;;0.20;0.10;;;18.50;99.90;;;18.89;49.05;99817.28;4890719;28;97356;-55
2022/09/29 09:48:23;;;;;;;0.00;0.00;;;18.70;99.90;;;18.94;49.75;99820.41;4882760;28;97421;-54
2022/09/29 09:50:49;;;;;;;0.83;0.20;;;18.80;99.90;;;19.00;49.56;99823.44;4892296;28;97262;-56
2022/09/29 09:53:31;;;;;;;0.70;0.27;;;18.90;99.90;;;19.09;49.52;99816.47;4887846;28;97072;-55
2022/09/29 09:56:20;;;;;;;0.10;0.10;;;19.10;99.90;;;19.20;49.26;99818.22;4903000;28;97083;-55
2022/09/29 09:59:20;;;;;;;0.13;0.13;;;19.20;99.90;;;19.20;48.39;99813.75;4887151;28;101121;-53
2022/09/29 10:01:46;;;;;;;0.00;0.00;;;19.20;99.90;;;19.23;49.00;99808.13;4886132;28;103772;-56
2022/09/29 10:04:13;;;;;;;0.57;0.33;;;19.30;99.90;;;19.27;47.33;99820.28;4890020;28;97484;-55
2022/09/29 10:06:39;;;;;;;0.47;0.17;;;19.30;99.00;;;19.32;48.86;99818.06;4877472;28;97306;-56
2022/09/29 10:09:10;;;;;;;0.40;0.30;;;19.40;99.90;;;19.30;48.40;99814.66;4887454;28;97795;-56
2022/09/29 10:11:36;;;;;;;0.40;0.20;;;19.30;99.60;;;19.32;48.88;99812.69;4911453;28;97300;-55
2022/09/29 10:14:21;;;;;;;0.30;0.30;;;19.30;99.90;;;19.30;48.72;99817.34;4891233;28;105713;-54
2022/09/29 10:17:01;;;;;;;0.47;0.40;;;19.30;99.50;;;19.33;47.41;99819.75;4892168;28;97419;-56
2022/09/29 10:19:54;;;;;;;0.30;0.30;;;19.30;98.90;;;19.34;48.78;99820.59;4886564;28;101631;-55
2022/09/29 10:22:21;;;;;;;0.20;0.20;;;19.30;99.90;;;19.35;48.63;99822.28;4892904;28;96670;-55
2022/09/29 10:24:46;;;;;;;0.63;0.23;;;19.30;99.90;;;19.19;44.74;99822.75;4895233;28;97415;-55
2022/09/29 10:27:19;;;;;;;0.50;0.47;;;19.20;97.90;;;18.91;45.52;99828.69;4892034;28;104402;-54
2022/09/29 10:29:51;;;;;;;0.53;0.53;;;18.80;98.50;;;18.84;47.56;99827.53;4892059;28;97065;-56
2022/09/29 10:32:24;;;;;;;0.70;0.43;;;18.60;99.80;;;18.75;46.69;99817.59;4889802;28;98268;-55
2022/09/29 10:35:02;;;;;;;1.00;0.50;;;18.50;99.30;;;18.70;49.96;99816.16;4886799;28;97071;-55
2022/09/29 10:37:37;;;;;;;0.50;0.50;;;18.40;99.90;;;18.88;49.84;99824.47;4876060;28;97103;-54